Tatums, Oklahoma
Current Conditions -  °F | °C
As of 6:55 PM on Monday 22 Dec 2014 (Local Time) from KPVJ Reporting Station
Broken Clouds Broken Clouds  
Wind Chill: 51°   Ceiling: 12000
Heat Index: 51°   Visibility: 10mi
Dew Point: 38°   Wind: 0mph
Humidity: 60%   Direction: NA
Pressure: 29.66"   Gusts: NA
Location:  34.48°N, 97.46°W
Report Text: KPVJ 230055Z AUTO 00000KT 10SM BKN120 11/03 A2966 RMK AO2 T01080033
Loading
Personal Weather Stations






























Interactive Weather Map New forecast layout! Learn more

10-Day Weather Forecast

Advertisements
Track Severe Weather on mobile